• Join FlightAware (Why Join?)
  • Login
  • US Flag 
07:22AM EDT


 

Airport Tracker/Info


-or-


 

Live Flight TrackerFlight Track Log ✈ N411WC ✈ 16-Jun-2013 ✈ KBDN - KUAO

Flight Track Log - Related Links

Times and Time Zones

All times are in EDT time to prevent confusion due to time zone crossing. See the N411WC flight status page for this flight to view local times or setup timezone preferences in your user account.

Time Position Orientation Groundspeed Altitude Reporting Facility
EDT Latitude Longitude Course Direction KTS MPH feet Rate Location/Type
04:56PM 44.1269 -121.2686 334° Northwest 195 224 7,300  Level Seattle Center
04:57PM 44.1828 -121.2864 347° North 204 235 9,400 2,160 Climbing Seattle Center
04:58PM 44.2242 -121.3414 316° Northwest 202 232 11,800 2,040 Climbing Seattle Center
04:59PM 44.2661 -121.3975 316° Northwest 207 238 13,600 1,080 Climbing Seattle Center
05:00PM 44.3131 -121.4625 315° West 228 262 14,000 180 Climbing Seattle Center
05:01PM 44.3683 -121.5344 317° Northwest 252 290 14,000  Level Seattle Center
05:02PM 44.4386 -121.5844 333° Northwest 274 315 14,000  Level Seattle Center
05:03PM 44.5069 -121.6819 315° West 290 334 14,000  Level Seattle Center
05:04PM 44.5636 -121.7675 313° West 295 339 14,000  Level Seattle Center
05:05PM 44.6236 -121.8561 314° West 302 348 14,000  Level Seattle Center
05:06PM 44.6844 -121.9444 314° West 308 354 14,100  Climbing Seattle Center
05:07PM 44.7383 -122.0258 313° West 291 335 14,100 -120 Level Seattle Center
05:08PM 44.7775 -122.0867 312° West 294 338 13,900 -540 Descending Seattle Center
05:08PM 44.7942 -122.1114 314° West 295 339 13,600 -1,200 Descending Seattle Center
05:09PM 44.8161 -122.1469 311° West 304 350 13,100 -1,020 Descending Seattle Center
05:09PM 44.8503 -122.1983 313° West 300 345 12,600 -1,020 Descending Seattle Center
05:10PM 44.8733 -122.2333 313° West 300 345 12,100 -1,140 Descending Seattle Center
05:10PM 44.9039 -122.2803 313° West 294 338 11,500 -1,020 Descending Seattle Center
05:11PM 44.9278 -122.3178 312° West 291 335 11,100 -1,020 Descending Seattle Center
05:11PM 44.9597 -122.3647 314° West 296 341 10,500 -1,020 Descending Seattle Center
05:12PM 44.9814 -122.3997 311° West 288 331 10,100 -1,020 Descending Seattle Center
05:12PM 45.0128 -122.4461 314° West 289 333 9,500 -1,140 Descending Seattle Center
05:13PM 45.0403 -122.4858 314° West 284 327 9,000 -1,200 Descending Seattle Center
05:13PM 45.0692 -122.5233 317° Northwest 284 327 8,300 -1,440 Descending Seattle Center
05:14PM 45.0994 -122.5628 317° Northwest 282 325 7,600 -1,920 Descending Seattle Center
05:14PM 45.1381 -122.6111 319° Northwest 280 322 6,400 -1,800 Descending Seattle Center